Nordik Express — VCYL — position and weather

sailwx.info

Track history (hours):
 
Tides and Currents Weather Stations Pressure Air Temp Water Temp Dewpoint Dewpoint Depression Visibility Wind Speed Wind Dir Waves Ship Positions

Nordik Express

Last reported at 2018-May-25 06:00 UTC. Time now 2018-May-25 07:08 UTC.
Position N 46°48' W 071°12'.

Length 69.5 m; beam 13.4 m; draft 5 m.

Type: Passenger vessel. MMSI: 316001952.

Wind from 160 at 1 knots

Barometer 1006.1 mb
Air temperature 15.5 ° C
Dewpoint 3.4 ° C

Date/timePositionNaut miles runAvg speedWind from/ knotsBaromVisibWave heightAir tempDewpointWater temp
2018-May-25 06:00N 46°48' W 071°12'0 0.0 160 / 11006.1 15.5 3.4
2018-May-25 05:00N 46°48' W 071°12'0 0.0 220 / 11007.1 15.0 2.5
2018-May-25 04:00N 46°48' W 071°12'0 0.0 090 / 11008.6 15.8 3.2
2018-May-25 03:00N 46°48' W 071°12'0 0.0 110 / 21010.2 17.5 1.7
2018-May-25 02:00N 46°48' W 071°12'0 0.0 110 / 21011.5 17.6 1.0
2018-May-25 01:00N 46°48' W 071°12'0 0.0 120 / 11012.3 18.5 1.9
2018-May-25 00:00N 46°48' W 071°12'0 0.0 190 / 61012.9 18.4-0.4
2018-May-24 23:00N 46°48' W 071°12'0 0.0 170 / 81013.1 19.2-0.6
2018-May-24 22:00N 46°48' W 071°12'0 0.0 170 / 91013.7 19.2-1.2
2018-May-24 21:00N 46°48' W 071°12'0 0.0 150 / 91014.2 19.7-3.2
2018-May-24 20:00N 46°48' W 071°12'0 0.0 150 / 71014.9 19.4-4.1
2018-May-24 19:00N 46°48' W 071°12'0 0.0 170 / 71015.6 19.0-5.3
2018-May-24 18:00N 46°48' W 071°12'0 0.0 160 / 91016.1 17.7-5.4
2018-May-24 17:00N 46°48' W 071°12'0 0.0 100 / 61017.3 17.5-4.3
2018-May-24 16:00N 46°48' W 071°12'0 0.0 120 / 51018.4 16.7-4.7
2018-May-24 15:00N 46°48' W 071°12'0 0.0 170 / 51019.4 14.9-6.5
2018-May-24 14:00N 46°48' W 071°12'0 0.0 160 / 51019.9 13.6-6.6
2018-May-24 13:00N 46°48' W 071°12'0 0.0 190 / 81020.4 12.3-7.1
2018-May-24 12:00N 46°48' W 071°12'0 0.0 150 / 41020.2 11.5-4.0
2018-May-24 11:00N 46°48' W 071°12'0 0.0 320 / 41019.6 9.9-3.0
2018-May-24 10:00N 46°48' W 071°12'0 0.0 320 / 41018.6 8.2-2.0
2018-May-24 09:00N 46°48' W 071°12'0 0.0 210 / 21017.8 6.4 3.3
2018-May-24 08:00N 46°48' W 071°12'0 0.0 190 / 51017.1 6.6 4.4
2018-May-24 07:00N 46°48' W 071°12'0 0.0 210 / 41017.0 7.4 4.9
2018-May-24 06:00N 46°48' W 071°12'0 0.0 220 / 11016.9 8.4 4.9
2018-May-24 05:00N 46°48' W 071°12'0 0.0 270 / 11016.8 8.9 4.4
2018-May-24 04:00N 46°48' W 071°12'0 0.0 300 / 11016.7 9.2 4.6
2018-May-24 03:00N 46°48' W 071°12'0 0.0 320 / 41016.8 9.3 4.3
2018-May-24 02:00N 46°48' W 071°12'0 0.0 320 / 61016.6 9.6 4.8
2018-May-24 01:00N 46°48' W 071°12'0 0.0 330 / 71016.3 9.9 3.9
2018-May-24 00:00N 46°48' W 071°12'0 0.0 350 / 81016.1 10.5 3.5
2018-May-23 23:00N 46°48' W 071°12'0 0.0 350 / 111016.0 10.7 3.0
2018-May-23 22:00N 46°48' W 071°12'0 0.0 360 / 111015.9 10.3 2.9
2018-May-23 21:00N 46°48' W 071°12'0 0.0 360 / 141015.7 9.7 3.8
2018-May-23 20:00N 46°48' W 071°12'0 0.0 360 / 151015.4 9.3 3.7
2018-May-23 19:00N 46°48' W 071°12'0 0.0 360 / 151015.1 8.7 4.4
2018-May-23 18:00N 46°48' W 071°12'0 0.0 360 / 161014.7 8.2 5.8
2018-May-23 17:00N 46°48' W 071°12'0 0.0 350 / 181014.4 7.8 6.5
2018-May-23 16:00N 46°48' W 071°12'0 0.0 360 / 171013.9 7.9 7.8
2018-May-23 15:00N 46°48' W 071°12'0 0.0 360 / 111013.3 8.2 8.2
2018-May-23 14:00N 46°48' W 071°12'0 0.0 360 / 131013.0 8.6 8.6
2018-May-23 13:00N 46°48' W 071°12'0 0.0 360 / 141012.2 9.3 9.3
2018-May-23 12:00N 46°48' W 071°12'0 0.0 360 / 101011.4 10.710.7
2018-May-23 11:00N 46°48' W 071°12'0 0.0 160 / 51010.4 14.614.2
2018-May-23 10:00N 46°48' W 071°12'0 0.0 160 / 31009.9 14.613.9
2018-May-23 09:00N 46°48' W 071°12'0 0.0 180 / 51009.6 14.413.7
2018-May-23 08:00N 46°48' W 071°12'0 0.0 140 / 41009.4 15.013.6
2018-May-23 07:00N 46°48' W 071°12'0 0.0 120 / 41009.2 15.113.5
2018-May-23 06:00N 46°48' W 071°12'0 0.0 100 / 51010.1 15.612.9
2018-May-23 05:00N 46°48' W 071°12'0 0.0 180 / 51010.9 15.811.8
2018-May-23 04:00N 46°48' W 071°12'0 0.0 160 / 61011.4 16.311.6
2018-May-23 03:00N 46°48' W 071°12'0 0.0 190 / 61011.4 16.510.4
2018-May-23 02:00N 46°48' W 071°12'0 0.0 170 / 61011.6 18.1 9.2
2018-May-23 01:00N 46°48' W 071°12'0 0.0 170 / 51011.7 19.3 7.7
2018-May-23 00:00N 46°48' W 071°12'0 0.0 160 / 61011.9 20.4 7.5
2018-May-22 23:00N 46°48' W 071°12'0 0.0 160 / 91011.9 21.8 7.5
2018-May-22 22:00N 46°48' W 071°12'0 0.0 160 / 121011.6 23.4 7.2
2018-May-22 21:00N 46°48' W 071°12'0 0.0 170 / 121011.3 25.0 5.0
2018-May-22 20:00N 46°48' W 071°12'0 0.0 170 / 131011.4 26.4 2.6
2018-May-22 19:00N 46°48' W 071°12'0 0.0 170 / 121012.2 26.4 3.8
2018-May-22 18:00N 46°48' W 071°12'0 0.0 170 / 91013.5 26.1 4.9
2018-May-22 17:00N 46°48' W 071°12'0 0.0 190 / 71014.8 24.0 5.1
2018-May-22 16:00N 46°48' W 071°12'0 0.0 190 / 51016.1 21.8 5.2
2018-May-22 15:00N 46°48' W 071°12'0 0.0 180 / 31017.0 19.4 4.9
2018-May-22 14:00N 46°48' W 071°12'0 0.0 070 / 31018.0 16.5 3.2
2018-May-22 13:00N 46°48' W 071°12'0 0.0 070 / 21019.3 15.0 2.3
2018-May-22 12:00N 46°48' W 071°12'0 0.0 350 / 11019.9 11.9-0.2
2018-May-22 11:00N 46°48' W 071°12'0 0.0 350 / 21020.2 10.2-0.4
2018-May-22 10:00N 46°48' W 071°12'0 0.0 290 / 11019.9 9.5-0.9
2018-May-22 09:00N 46°48' W 071°12'0 0.0 300 / 21019.9 9.5-1.3
2018-May-22 08:00N 46°48' W 071°12'0 0.0 270 / 21020.1 10.0-1.6
2018-May-22 07:00N 46°48' W 071°12'0 0.0 270 / 31019.9 10.4-0.6
2018-May-22 06:00N 46°48' W 071°12'0 0.0 270 / 31019.9 11.4-1.0
2018-May-22 05:00N 46°48' W 071°12'0 0.0 310 / 21019.2 12.1 1.3
2018-May-22 04:00N 46°48' W 071°12'0 0.0 360 / 31018.8 13.0 4.1
2018-May-22 03:00N 46°48' W 071°12'0 0.0 320 / 21018.6 15.9-1.8
2018-May-22 02:00N 46°48' W 071°12'0 0.0 300 / 11018.7 17.8-6.0
2018-May-22 01:00N 46°48' W 071°12'0 0.0 180 / 21018.0 19.2-6.3
2018-May-22 00:00N 46°48' W 071°12'0 0.0 200 / 41017.5 20.7-6.4
2018-May-21 23:00N 46°48' W 071°12'0 0.0 200 / 71016.5 21.5-7.7
2018-May-21 22:00N 46°48' W 071°12'0 0.0 230 / 131016.0 21.9-7.2
2018-May-21 21:00N 46°48' W 071°12'0 0.0 210 / 131015.5 21.9-6.6
2018-May-21 20:00N 46°48' W 071°12'0 0.0 200 / 131015.0 21.8-4.6
2018-May-21 19:00N 46°48' W 071°12'0 0.0 200 / 131014.8 21.6-2.2
2018-May-21 18:00N 46°48' W 071°12'0 0.0 210 / 161014.7 21.1-2.3
2018-May-21 17:00N 46°48' W 071°12'0 0.0 220 / 131014.5 20.8 0.2
2018-May-21 16:00N 46°48' W 071°12'0 0.0 190 / 171014.6 20.2 0.4
2018-May-21 15:00N 46°48' W 071°12'0 0.0 150 / 81014.9 19.2 1.9
2018-May-21 14:00N 46°48' W 071°12'0 0.0 150 / 91015.8 16.9 1.2
2018-May-21 13:00N 46°48' W 071°12'0 0.0 160 / 71016.4 14.8 1.8
2018-May-21 12:00N 46°48' W 071°12'0 0.0 170 / 71016.9 12.8 1.6
2018-May-21 11:00N 46°48' W 071°12'0 0.0 170 / 41017.2 11.7 1.9
2018-May-21 10:00N 46°48' W 071°12'0 0.0 140 / 41016.8 10.0 2.5
2018-May-21 09:00N 46°48' W 071°12'0 0.0 170 / 31016.5 8.3 1.4
2018-May-21 08:00N 46°48' W 071°12'0 0.0 170 / 41015.9 9.2 0.2
2018-May-21 07:00N 46°48' W 071°12'0 0.0 170 / 61015.7 10.1 0.1
2018-May-21 06:00N 46°48' W 071°12'0 0.0 170 / 41015.5 11.3 1.0
2018-May-21 05:00N 46°48' W 071°12'0 0.0 170 / 21015.3 12.6-0.9
2018-May-21 04:00N 46°48' W 071°12'0 0.0 190 / 31014.8 13.4-1.4
2018-May-21 03:00N 46°48' W 071°12'0 0.0 180 / 31014.7 14.6-1.8
2018-May-21 02:00N 46°48' W 071°12'0 0.0 170 / 31014.5 16.1-2.5
2018-May-21 01:00N 46°48' W 071°12'0 0.0 190 / 51013.9 16.8-2.7
2018-May-21 00:00N 46°48' W 071°12'0 0.0 200 / 71013.4 18.4-3.4
2018-May-20 23:00N 46°48' W 071°12'0 0.0 200 / 81012.9 19.0-3.5
2018-May-20 22:00N 46°48' W 071°12'0 0.0 210 / 61012.6 19.2-1.4
2018-May-20 21:00N 46°48' W 071°12'0 0.0 220 / 61012.6 18.3-0.8
2018-May-20 20:00N 46°48' W 071°12'0 0.0 210 / 31012.6 17.7-0.1
2018-May-20 19:00N 46°48' W 071°12'0 0.0 230 / 91012.4 17.0-1.0
2018-May-20 18:00N 46°48' W 071°12'0 0.0 200 / 111011.8 16.2 2.8
2018-May-20 17:00N 46°48' W 071°12'0 0.0 220 / 101010.9 16.0 4.6
2018-May-20 16:00N 46°48' W 071°12'0 0.0 220 / 141009.9 15.0 6.7
2018-May-20 15:00N 46°48' W 071°12'0 0.0 200 / 101009.1 15.012.3
2018-May-20 14:00N 46°48' W 071°12'0 0.0 170 / 81008.5 14.814.7
2018-May-20 13:00N 46°48' W 071°12'0 0.0 170 / 51008.2 13.913.9
2018-May-20 12:00N 46°48' W 071°12'0 0.0 170 / 51008.0 13.113.2
2018-May-20 11:00N 46°48' W 071°12'0 0.0 150 / 41007.7 12.112.3
2018-May-20 10:00N 46°48' W 071°12'0 0.0 160 / 31007.4 11.611.8
2018-May-20 09:00N 46°48' W 071°12'0 0.0 180 / 31007.4 10.710.9
2018-May-20 08:00N 46°48' W 071°12'0 0.0 170 / 21007.6 10.710.9
2018-May-20 07:00N 46°48' W 071°12'0 0.0 210 / 11008.1 10.010.2
2018-May-20 06:00N 46°48' W 071°12'0 0.0 080 / 11009.0 10.210.4
2018-May-20 05:00N 46°48' W 071°12'0 0.0 320 / 31010.3 9.8 9.9
2018-May-20 04:00N 46°48' W 071°12'0 0.0 340 / 21011.0 10.010.1
2018-May-20 03:00N 46°48' W 071°12'0 0.0 060 / 21012.6 10.310.4
2018-May-20 02:00N 46°48' W 071°12'0 0.0 020 / 41014.4 10.510.6
2018-May-20 01:00N 46°48' W 071°12'0 0.0 090 / 31015.5 12.010.9
2018-May-20 00:00N 46°48' W 071°12'0 0.0 140 / 31016.1 15.5 4.6
2018-May-19 23:00N 46°48' W 071°12'0 0.0 100 / 51016.1 19.1 0.8
2018-May-19 22:00N 46°48' W 071°12'0 0.0 090 / 31016.8 21.0-0.6
2018-May-19 21:00N 46°48' W 071°12'0 0.0 310 / 31018.0 17.7 4.6
2018-May-19 20:00N 46°48' W 071°12'0 0.0 320 / 21019.1 18.1 4.2
2018-May-19 19:00N 46°48' W 071°12'0 0.0 340 / 51020.4 17.9 1.8
2018-May-19 18:00N 46°48' W 071°12'0 0.0 330 / 41022.1 16.8-0.5
2018-May-19 17:00N 46°48' W 071°12'0 0.0 330 / 51023.7 14.3-0.4
2018-May-19 16:00N 46°48' W 071°12'0 0.0 330 / 61025.2 13.3-0.7
2018-May-19 15:00N 46°48' W 071°12'0 0.0 360 / 71026.2 13.4-2.7
2018-May-19 14:00N 46°48' W 071°12'0 0.0 360 / 111027.0 12.1-1.3
2018-May-19 13:00N 46°48' W 071°12'0 0.0 360 / 111028.1 11.2-0.1
2018-May-19 12:00N 46°48' W 071°12'0 0.0 360 / 131028.9 10.3 1.7
2018-May-19 11:00N 46°48' W 071°12'0 0.0 330 / 61029.6 8.4 1.0
2018-May-19 10:00N 46°48' W 071°12'0 0.0 320 / 71029.6 7.8 0.7
2018-May-19 09:00N 46°48' W 071°12'0 0.0 320 / 81029.6 7.3 0.5
2018-May-19 08:00N 46°48' W 071°12'0 0.0 320 / 71030.0 7.5 1.5
2018-May-19 07:00N 46°48' W 071°12'0 0.0 320 / 71029.9 8.3 1.3
2018-May-19 06:00N 46°48' W 071°12'0 0.0 320 / 61029.9 8.9 2.7
2018-May-19 05:00N 46°48' W 071°12'0 0.0 320 / 61029.9 9.3 3.5
2018-May-19 04:00N 46°48' W 071°12'0 0.0 320 / 71029.7 9.5 4.3
2018-May-19 03:00N 46°48' W 071°12'0 0.0 330 / 51029.3 10.6 5.6
2018-May-19 02:00N 46°48' W 071°12'0 0.0 320 / 61029.1 11.8 5.7
2018-May-19 01:00N 46°48' W 071°12'0 0.0 170 / 21028.7 15.1-7.0
2018-May-19 00:00N 46°48' W 071°12'0 0.0 160 / 31028.3 16.3-8.3
2018-May-18 23:00N 46°48' W 071°12'0 0.0 150 / 21028.5 17.3-8.2
2018-May-18 22:00N 46°48' W 071°12'0 0.0 120 / 31028.7 17.7-8.1
2018-May-18 21:00N 46°48' W 071°12'0 0.0 080 / 31028.8 16.7-6.3
2018-May-18 20:00N 46°48' W 071°12'0 0.0 070 / 31029.8 16.1-6.9
2018-May-18 19:00N 46°48' W 071°12'0 0.0 100 / 41030.4 15.8-8.1
2018-May-18 18:00N 46°48' W 071°12'0 0.0 080 / 41031.0 14.5-8.1
2018-May-18 17:00N 46°48' W 071°12'0 0.0 080 / 41031.1 13.2-7.8
2018-May-18 16:00N 46°48' W 071°12'0 0.0 080 / 41031.5 12.2-7.7
2018-May-18 15:00N 46°48' W 071°12'0 0.0 050 / 31031.3 10.1-6.7
2018-May-18 14:00N 46°48' W 071°12'0 0.0 360 / 41031.3 8.6-7.3
2018-May-18 13:00N 46°48' W 071°12'0 0.0 290 / 11030.8 8.6-7.8
2018-May-18 12:00N 46°48' W 071°12'0 0.0 200 / 51030.5 6.7-7.2
2018-May-18 11:00N 46°48' W 071°12'0 0.0 170 / 41030.3 5.2-5.4
2018-May-18 10:00N 46°48' W 071°12'0 0.0 190 / 51029.4 3.7-5.1
2018-May-18 09:00N 46°48' W 071°12'0 0.0 210 / 31028.9 3.9-4.8
2018-May-18 08:00N 46°48' W 071°12'0 0.0 250 / 11028.3 4.8-4.4
2018-May-18 07:00N 46°48' W 071°12'0 0.0 250 / 41027.9 5.4-6.0
2018-May-18 06:00N 46°48' W 071°12'0 0.0 290 / 21027.4 7.1-5.6
2018-May-18 05:00N 46°48' W 071°12'0 0.0 270 / 21026.8 6.9-2.1
2018-May-18 04:00N 46°48' W 071°12'0 0.0 270 / 21026.0 7.0-3.7
2018-May-18 03:00N 46°48' W 071°12'0 0.0 330 / 21024.7 8.5 0.2
2018-May-18 02:00N 46°48' W 071°12'0 0.0 320 / 41024.0 8.9-0.0
2018-May-18 01:00N 46°48' W 071°12'0 0.0 330 / 51022.8 9.2-0.1
2018-May-18 00:00N 46°48' W 071°12'0 0.0 320 / 71021.6 10.0-0.1
2018-May-17 23:00N 46°48' W 071°12'0 0.0 350 / 81020.8 10.8-0.9
2018-May-17 22:00N 46°48' W 071°12'0 0.0 360 / 91020.4 11.1-0.7
2018-May-17 21:00N 46°48' W 071°12'0 0.0 360 / 71020.6 11.6-0.2
2018-May-17 20:00N 46°48' W 071°12'0 0.0 350 / 61020.1 11.4-0.2
2018-May-17 19:00N 46°48' W 071°12'0 0.0 350 / 81019.8 10.9 0.3
2018-May-17 18:00N 46°48' W 071°12'0 0.0 360 / 91019.9 10.5-0.5
2018-May-17 17:00N 46°48' W 071°12'0 0.0 360 / 91019.8 9.7-0.6
2018-May-17 16:00N 46°48' W 071°12'0 0.0 340 / 101019.6 8.9-0.1
2018-May-17 15:00N 46°48' W 071°12'0 0.0 350 / 141018.8 8.7 0.9
2018-May-17 14:00N 46°48' W 071°12'0 0.0 010 / 111017.9 9.3 1.4
2018-May-17 13:00N 46°48' W 071°12'0 0.0 320 / 51017.6 9.3-1.2
2018-May-17 12:00N 46°48' W 071°12'0 0.0 280 / 21016.8 8.8-0.7
2018-May-17 11:00N 46°48' W 071°12'0 0.0 210 / 81015.5 9.4 2.1
2018-May-17 10:00N 46°48' W 071°12'0 0.0 330 / 51013.6 9.1 6.4
2018-May-17 09:00N 46°48' W 071°12'0 0.0 320 / 61012.4 9.7 6.5
2018-May-17 08:00N 46°48' W 071°12'0 0.0 070 / 11012.1 13.4 4.5
2018-May-17 07:00N 46°48' W 071°12'0 0.0 110 / 11010.7 12.6 3.2
2018-May-17 06:00N 46°48' W 071°12'0 0.0 190 / 41010.3 10.0 1.7
2018-May-17 05:00N 46°48' W 071°12'0 0.0 300 / 11009.7 9.6 3.5
2018-May-17 04:00N 46°48' W 071°12'0 0.0 1010.2 9.2 2.4
2018-May-17 03:00N 46°48' W 071°12'0 0.0 330 / 21011.0 9.2 1.7
2018-May-17 02:00N 46°48' W 071°12'0 0.0 340 / 51012.1 8.9 3.0
2018-May-17 01:00N 46°48' W 071°12'0 0.0 320 / 61012.7 8.9 2.6
2018-May-17 00:00N 46°48' W 071°12'0 0.0 360 / 81013.1 8.9 3.4
2018-May-16 23:00N 46°48' W 071°12'0 0.0 360 / 71013.8 9.8 2.5
2018-May-16 22:00N 46°48' W 071°12'0 0.0 340 / 41014.3 11.9 1.2
2018-May-16 21:00N 46°48' W 071°12'0 0.0 320 / 61014.6 13.2 1.9
2018-May-16 20:00N 46°48' W 071°12'0 0.0 350 / 21016.1 13.4-1.7
2018-May-16 19:00N 46°48' W 071°12'0 0.0 360 / 51017.8 13.1-2.4
2018-May-16 18:00N 46°48' W 071°12'0 0.0 350 / 51019.2 11.3-2.3
2018-May-16 17:00N 46°48' W 071°12'0 0.0 360 / 51020.4 9.7-4.7
2018-May-16 16:00N 46°48' W 071°12'0 0.0 330 / 51021.6 7.8-5.6
2018-May-16 15:00N 46°48' W 071°12'0 0.0 310 / 51022.2 6.5-5.9
2018-May-16 14:00N 46°48' W 071°12'0 0.0 330 / 51022.9 5.7-7.1
2018-May-16 13:00N 46°48' W 071°12'0 0.0 330 / 91023.0 4.7-6.5
2018-May-16 12:00N 46°48' W 071°12'0 0.0 350 / 91023.6 4.5-6.5
2018-May-16 11:00N 46°48' W 071°12'0 0.0 360 / 91022.9 3.9-7.7
2018-May-16 10:00N 46°48' W 071°12'0 0.0 020 / 71022.3 3.2-7.8
2018-May-16 09:00N 46°48' W 071°12'0 0.0 020 / 61021.7 3.2-6.8
2018-May-16 08:00N 46°48' W 071°12'0 0.0 010 / 51021.3 4.2-6.2
2018-May-16 07:00N 46°48' W 071°12'0 0.0 330 / 21020.7 4.7-5.8
2018-May-16 06:00N 46°48' W 071°12'0 0.0 260 / 31020.2 5.0-7.9
2018-May-16 05:00N 46°48' W 071°12'0 0.0 170 / 21019.6 5.8-7.8
2018-May-16 04:00N 46°48' W 071°12'0 0.0 310 / 11018.7 6.8-6.4
2018-May-16 03:00N 46°48' W 071°12'0 0.0 310 / 41017.6 7.8-6.3
2018-May-16 02:00N 46°48' W 071°12'0 0.0 320 / 71016.4 8.9-5.0
2018-May-16 01:00N 46°48' W 071°12'0 0.0 270 / 11014.9 11.2-5.0
2018-May-16 00:00N 46°48' W 071°12'0 0.0 290 / 11012.4 12.8-4.2
2018-May-15 23:00N 46°48' W 071°12'0 0.0 230 / 31010.1 15.7-1.7
2018-May-15 22:00N 46°48' W 071°12'0 0.0 220 / 121008.7 17.2-0.1
2018-May-15 21:00N 46°48' W 071°12'0 0.0 240 / 91007.5 18.8-0.5
2018-May-15 20:00N 46°48' W 071°12'0 0.0 220 / 91007.2 18.7-1.0
2018-May-15 19:00N 46°48' W 071°12'0 0.0 230 / 141006.0 19.1-1.2
2018-May-15 18:00N 46°48' W 071°12'0 0.0 170 / 51005.6 19.5 9.6
2018-May-15 17:00N 46°48' W 071°12'0 0.0 160 / 61005.4 18.8 9.8
2018-May-15 16:00N 46°48' W 071°12'0 0.0 180 / 101005.3 18.3 9.5
2018-May-15 15:00N 46°48' W 071°12'0 0.0 160 / 71005.0 17.7 9.6
2018-May-15 14:00N 46°48' W 071°12'0 0.0 180 / 81004.8 17.0 9.1
2018-May-15 13:00N 46°48' W 071°12'0 0.0 180 / 81005.0 16.8 8.4
2018-May-15 12:00N 46°48' W 071°12'0 0.0 200 / 41005.0 15.6 6.2
2018-May-15 11:00N 46°48' W 071°12'0 0.0 1005.2 13.8 6.5
2018-May-15 10:00N 46°48' W 071°12'0 0.0 250 / 11005.4 12.2 8.0
2018-May-15 09:00N 46°48' W 071°12'0 0.0 100 / 11005.3 12.6 7.5
2018-May-15 08:00N 46°48' W 071°12'0 0.0 1006.1 12.9 5.7
2018-May-15 07:00N 46°48' W 071°12'0 0.0 020 / 11006.6 13.5 6.6
2018-May-15 06:00N 46°48' W 071°12'   330 / 21007.3 15.1 4.8
Track history (hours):
 
Tides and Currents Weather Stations Pressure Air Temp Water Temp Dewpoint Dewpoint Depression Visibility Wind Speed Wind Dir Waves Ship Positions

Nordik Express

Last reported at 2018-May-25 06:00 UTC. Time now 2018-May-25 07:08 UTC.
Position N 46°48' W 071°12'.

Length 69.5 m; beam 13.4 m; draft 5 m.

Type: Passenger vessel. MMSI: 316001952.

Wind from 160 at 1 knots

Barometer 1006.1 mb
Air temperature 15.5 ° C
Dewpoint 3.4 ° C

Date/timePositionNaut miles runAvg speedWind from/ knotsBaromVisibWave heightAir tempDewpointWater temp
2018-May-25 06:00N 46°48' W 071°12'0 0.0 160 / 11006.1 15.5 3.4
2018-May-25 05:00N 46°48' W 071°12'0 0.0 220 / 11007.1 15.0 2.5
2018-May-25 04:00N 46°48' W 071°12'0 0.0 090 / 11008.6 15.8 3.2
2018-May-25 03:00N 46°48' W 071°12'0 0.0 110 / 21010.2 17.5 1.7
2018-May-25 02:00N 46°48' W 071°12'0 0.0 110 / 21011.5 17.6 1.0
2018-May-25 01:00N 46°48' W 071°12'0 0.0 120 / 11012.3 18.5 1.9
2018-May-25 00:00N 46°48' W 071°12'0 0.0 190 / 61012.9 18.4-0.4
2018-May-24 23:00N 46°48' W 071°12'0 0.0 170 / 81013.1 19.2-0.6
2018-May-24 22:00N 46°48' W 071°12'0 0.0 170 / 91013.7 19.2-1.2
2018-May-24 21:00N 46°48' W 071°12'0 0.0 150 / 91014.2 19.7-3.2
2018-May-24 20:00N 46°48' W 071°12'0 0.0 150 / 71014.9 19.4-4.1
2018-May-24 19:00N 46°48' W 071°12'0 0.0 170 / 71015.6 19.0-5.3
2018-May-24 18:00N 46°48' W 071°12'0 0.0 160 / 91016.1 17.7-5.4
2018-May-24 17:00N 46°48' W 071°12'0 0.0 100 / 61017.3 17.5-4.3
2018-May-24 16:00N 46°48' W 071°12'0 0.0 120 / 51018.4 16.7-4.7
2018-May-24 15:00N 46°48' W 071°12'0 0.0 170 / 51019.4 14.9-6.5
2018-May-24 14:00N 46°48' W 071°12'0 0.0 160 / 51019.9 13.6-6.6
2018-May-24 13:00N 46°48' W 071°12'0 0.0 190 / 81020.4 12.3-7.1
2018-May-24 12:00N 46°48' W 071°12'0 0.0 150 / 41020.2 11.5-4.0
2018-May-24 11:00N 46°48' W 071°12'0 0.0 320 / 41019.6 9.9-3.0
2018-May-24 10:00N 46°48' W 071°12'0 0.0 320 / 41018.6 8.2-2.0
2018-May-24 09:00N 46°48' W 071°12'0 0.0 210 / 21017.8 6.4 3.3
2018-May-24 08:00N 46°48' W 071°12'0 0.0 190 / 51017.1 6.6 4.4
2018-May-24 07:00N 46°48' W 071°12'0 0.0 210 / 41017.0 7.4 4.9
2018-May-24 06:00N 46°48' W 071°12'0 0.0 220 / 11016.9 8.4 4.9
2018-May-24 05:00N 46°48' W 071°12'0 0.0 270 / 11016.8 8.9 4.4
2018-May-24 04:00N 46°48' W 071°12'0 0.0 300 / 11016.7 9.2 4.6
2018-May-24 03:00N 46°48' W 071°12'0 0.0 320 / 41016.8 9.3 4.3
2018-May-24 02:00N 46°48' W 071°12'0 0.0 320 / 61016.6 9.6 4.8
2018-May-24 01:00N 46°48' W 071°12'0 0.0 330 / 71016.3 9.9 3.9
2018-May-24 00:00N 46°48' W 071°12'0 0.0 350 / 81016.1 10.5 3.5
2018-May-23 23:00N 46°48' W 071°12'0 0.0 350 / 111016.0 10.7 3.0
2018-May-23 22:00N 46°48' W 071°12'0 0.0 360 / 111015.9 10.3 2.9
2018-May-23 21:00N 46°48' W 071°12'0 0.0 360 / 141015.7 9.7 3.8
2018-May-23 20:00N 46°48' W 071°12'0 0.0 360 / 151015.4 9.3 3.7
2018-May-23 19:00N 46°48' W 071°12'0 0.0 360 / 151015.1 8.7 4.4
2018-May-23 18:00N 46°48' W 071°12'0 0.0 360 / 161014.7 8.2 5.8
2018-May-23 17:00N 46°48' W 071°12'0 0.0 350 / 181014.4 7.8 6.5
2018-May-23 16:00N 46°48' W 071°12'0 0.0 360 / 171013.9 7.9 7.8
2018-May-23 15:00N 46°48' W 071°12'0 0.0 360 / 111013.3 8.2 8.2
2018-May-23 14:00N 46°48' W 071°12'0 0.0 360 / 131013.0 8.6 8.6
2018-May-23 13:00N 46°48' W 071°12'0 0.0 360 / 141012.2 9.3 9.3
2018-May-23 12:00N 46°48' W 071°12'0 0.0 360 / 101011.4 10.710.7
2018-May-23 11:00N 46°48' W 071°12'0 0.0 160 / 51010.4 14.614.2
2018-May-23 10:00N 46°48' W 071°12'0 0.0 160 / 31009.9 14.613.9
2018-May-23 09:00N 46°48' W 071°12'0 0.0 180 / 51009.6 14.413.7
2018-May-23 08:00N 46°48' W 071°12'0 0.0 140 / 41009.4 15.013.6
2018-May-23 07:00N 46°48' W 071°12'0 0.0 120 / 41009.2 15.113.5
2018-May-23 06:00N 46°48' W 071°12'0 0.0 100 / 51010.1 15.612.9
2018-May-23 05:00N 46°48' W 071°12'0 0.0 180 / 51010.9 15.811.8
2018-May-23 04:00N 46°48' W 071°12'0 0.0 160 / 61011.4 16.311.6
2018-May-23 03:00N 46°48' W 071°12'0 0.0 190 / 61011.4 16.510.4
2018-May-23 02:00N 46°48' W 071°12'0 0.0 170 / 61011.6 18.1 9.2
2018-May-23 01:00N 46°48' W 071°12'0 0.0 170 / 51011.7 19.3 7.7
2018-May-23 00:00N 46°48' W 071°12'0 0.0 160 / 61011.9 20.4 7.5
2018-May-22 23:00N 46°48' W 071°12'0 0.0 160 / 91011.9 21.8 7.5
2018-May-22 22:00N 46°48' W 071°12'0 0.0 160 / 121011.6 23.4 7.2
2018-May-22 21:00N 46°48' W 071°12'0 0.0 170 / 121011.3 25.0 5.0
2018-May-22 20:00N 46°48' W 071°12'0 0.0 170 / 131011.4 26.4 2.6
2018-May-22 19:00N 46°48' W 071°12'0 0.0 170 / 121012.2 26.4 3.8
2018-May-22 18:00N 46°48' W 071°12'0 0.0 170 / 91013.5 26.1 4.9
2018-May-22 17:00N 46°48' W 071°12'0 0.0 190 / 71014.8 24.0 5.1
2018-May-22 16:00N 46°48' W 071°12'0 0.0 190 / 51016.1 21.8 5.2
2018-May-22 15:00N 46°48' W 071°12'0 0.0 180 / 31017.0 19.4 4.9
2018-May-22 14:00N 46°48' W 071°12'0 0.0 070 / 31018.0 16.5 3.2
2018-May-22 13:00N 46°48' W 071°12'0 0.0 070 / 21019.3 15.0 2.3
2018-May-22 12:00N 46°48' W 071°12'0 0.0 350 / 11019.9 11.9-0.2
2018-May-22 11:00N 46°48' W 071°12'0 0.0 350 / 21020.2 10.2-0.4
2018-May-22 10:00N 46°48' W 071°12'0 0.0 290 / 11019.9 9.5-0.9
2018-May-22 09:00N 46°48' W 071°12'0 0.0 300 / 21019.9 9.5-1.3
2018-May-22 08:00N 46°48' W 071°12'0 0.0 270 / 21020.1 10.0-1.6
2018-May-22 07:00N 46°48' W 071°12'0 0.0 270 / 31019.9 10.4-0.6
2018-May-22 06:00N 46°48' W 071°12'0 0.0 270 / 31019.9 11.4-1.0
2018-May-22 05:00N 46°48' W 071°12'0 0.0 310 / 21019.2 12.1 1.3
2018-May-22 04:00N 46°48' W 071°12'0 0.0 360 / 31018.8 13.0 4.1
2018-May-22 03:00N 46°48' W 071°12'0 0.0 320 / 21018.6 15.9-1.8
2018-May-22 02:00N 46°48' W 071°12'0 0.0 300 / 11018.7 17.8-6.0
2018-May-22 01:00N 46°48' W 071°12'0 0.0 180 / 21018.0 19.2-6.3
2018-May-22 00:00N 46°48' W 071°12'0 0.0 200 / 41017.5 20.7-6.4
2018-May-21 23:00N 46°48' W 071°12'0 0.0 200 / 71016.5 21.5-7.7
2018-May-21 22:00N 46°48' W 071°12'0 0.0 230 / 131016.0 21.9-7.2
2018-May-21 21:00N 46°48' W 071°12'0 0.0 210 / 131015.5 21.9-6.6
2018-May-21 20:00N 46°48' W 071°12'0 0.0 200 / 131015.0 21.8-4.6
2018-May-21 19:00N 46°48' W 071°12'0 0.0 200 / 131014.8 21.6-2.2
2018-May-21 18:00N 46°48' W 071°12'0 0.0 210 / 161014.7 21.1-2.3
2018-May-21 17:00N 46°48' W 071°12'0 0.0 220 / 131014.5 20.8 0.2
2018-May-21 16:00N 46°48' W 071°12'0 0.0 190 / 171014.6 20.2 0.4
2018-May-21 15:00N 46°48' W 071°12'0 0.0 150 / 81014.9 19.2 1.9
2018-May-21 14:00N 46°48' W 071°12'0 0.0 150 / 91015.8 16.9 1.2
2018-May-21 13:00N 46°48' W 071°12'0 0.0 160 / 71016.4 14.8 1.8
2018-May-21 12:00N 46°48' W 071°12'0 0.0 170 / 71016.9 12.8 1.6
2018-May-21 11:00N 46°48' W 071°12'0 0.0 170 / 41017.2 11.7 1.9
2018-May-21 10:00N 46°48' W 071°12'0 0.0 140 / 41016.8 10.0 2.5
2018-May-21 09:00N 46°48' W 071°12'0 0.0 170 / 31016.5 8.3 1.4
2018-May-21 08:00N 46°48' W 071°12'0 0.0 170 / 41015.9 9.2 0.2
2018-May-21 07:00N 46°48' W 071°12'0 0.0 170 / 61015.7 10.1 0.1
2018-May-21 06:00N 46°48' W 071°12'0 0.0 170 / 41015.5 11.3 1.0
2018-May-21 05:00N 46°48' W 071°12'0 0.0 170 / 21015.3 12.6-0.9
2018-May-21 04:00N 46°48' W 071°12'0 0.0 190 / 31014.8 13.4-1.4
2018-May-21 03:00N 46°48' W 071°12'0 0.0 180 / 31014.7 14.6-1.8
2018-May-21 02:00N 46°48' W 071°12'0 0.0 170 / 31014.5 16.1-2.5
2018-May-21 01:00N 46°48' W 071°12'0 0.0 190 / 51013.9 16.8-2.7
2018-May-21 00:00N 46°48' W 071°12'0 0.0 200 / 71013.4 18.4-3.4
2018-May-20 23:00N 46°48' W 071°12'0 0.0 200 / 81012.9 19.0-3.5
2018-May-20 22:00N 46°48' W 071°12'0 0.0 210 / 61012.6 19.2-1.4
2018-May-20 21:00N 46°48' W 071°12'0 0.0 220 / 61012.6 18.3-0.8
2018-May-20 20:00N 46°48' W 071°12'0 0.0 210 / 31012.6 17.7-0.1
2018-May-20 19:00N 46°48' W 071°12'0 0.0 230 / 91012.4 17.0-1.0
2018-May-20 18:00N 46°48' W 071°12'0 0.0 200 / 111011.8 16.2 2.8
2018-May-20 17:00N 46°48' W 071°12'0 0.0 220 / 101010.9 16.0 4.6
2018-May-20 16:00N 46°48' W 071°12'0 0.0 220 / 141009.9 15.0 6.7
2018-May-20 15:00N 46°48' W 071°12'0 0.0 200 / 101009.1 15.012.3
2018-May-20 14:00N 46°48' W 071°12'0 0.0 170 / 81008.5 14.814.7
2018-May-20 13:00N 46°48' W 071°12'0 0.0 170 / 51008.2 13.913.9
2018-May-20 12:00N 46°48' W 071°12'0 0.0 170 / 51008.0 13.113.2
2018-May-20 11:00N 46°48' W 071°12'0 0.0 150 / 41007.7 12.112.3
2018-May-20 10:00N 46°48' W 071°12'0 0.0 160 / 31007.4 11.611.8
2018-May-20 09:00N 46°48' W 071°12'0 0.0 180 / 31007.4 10.710.9
2018-May-20 08:00N 46°48' W 071°12'0 0.0 170 / 21007.6 10.710.9
2018-May-20 07:00N 46°48' W 071°12'0 0.0 210 / 11008.1 10.010.2
2018-May-20 06:00N 46°48' W 071°12'0 0.0 080 / 11009.0 10.210.4
2018-May-20 05:00N 46°48' W 071°12'0 0.0 320 / 31010.3 9.8 9.9
2018-May-20 04:00N 46°48' W 071°12'0 0.0 340 / 21011.0 10.010.1
2018-May-20 03:00N 46°48' W 071°12'0 0.0 060 / 21012.6 10.310.4
2018-May-20 02:00N 46°48' W 071°12'0 0.0 020 / 41014.4 10.510.6
2018-May-20 01:00N 46°48' W 071°12'0 0.0 090 / 31015.5 12.010.9
2018-May-20 00:00N 46°48' W 071°12'0 0.0 140 / 31016.1 15.5 4.6
2018-May-19 23:00N 46°48' W 071°12'0 0.0 100 / 51016.1 19.1 0.8
2018-May-19 22:00N 46°48' W 071°12'0 0.0 090 / 31016.8 21.0-0.6
2018-May-19 21:00N 46°48' W 071°12'0 0.0 310 / 31018.0 17.7 4.6
2018-May-19 20:00N 46°48' W 071°12'0 0.0 320 / 21019.1 18.1 4.2
2018-May-19 19:00N 46°48' W 071°12'0 0.0 340 / 51020.4 17.9 1.8
2018-May-19 18:00N 46°48' W 071°12'0 0.0 330 / 41022.1 16.8-0.5
2018-May-19 17:00N 46°48' W 071°12'0 0.0 330 / 51023.7 14.3-0.4
2018-May-19 16:00N 46°48' W 071°12'0 0.0 330 / 61025.2 13.3-0.7
2018-May-19 15:00N 46°48' W 071°12'0 0.0 360 / 71026.2 13.4-2.7
2018-May-19 14:00N 46°48' W 071°12'0 0.0 360 / 111027.0 12.1-1.3
2018-May-19 13:00N 46°48' W 071°12'0 0.0 360 / 111028.1 11.2-0.1
2018-May-19 12:00N 46°48' W 071°12'0 0.0 360 / 131028.9 10.3 1.7
2018-May-19 11:00N 46°48' W 071°12'0 0.0 330 / 61029.6 8.4 1.0
2018-May-19 10:00N 46°48' W 071°12'0 0.0 320 / 71029.6 7.8 0.7
2018-May-19 09:00N 46°48' W 071°12'0 0.0 320 / 81029.6 7.3 0.5
2018-May-19 08:00N 46°48' W 071°12'0 0.0 320 / 71030.0 7.5 1.5
2018-May-19 07:00N 46°48' W 071°12'0 0.0 320 / 71029.9 8.3 1.3
2018-May-19 06:00N 46°48' W 071°12'0 0.0 320 / 61029.9 8.9 2.7
2018-May-19 05:00N 46°48' W 071°12'0 0.0 320 / 61029.9 9.3 3.5
2018-May-19 04:00N 46°48' W 071°12'0 0.0 320 / 71029.7 9.5 4.3
2018-May-19 03:00N 46°48' W 071°12'0 0.0 330 / 51029.3 10.6 5.6
2018-May-19 02:00N 46°48' W 071°12'0 0.0 320 / 61029.1 11.8 5.7
2018-May-19 01:00N 46°48' W 071°12'0 0.0 170 / 21028.7 15.1-7.0
2018-May-19 00:00N 46°48' W 071°12'0 0.0 160 / 31028.3 16.3-8.3
2018-May-18 23:00N 46°48' W 071°12'0 0.0 150 / 21028.5 17.3-8.2
2018-May-18 22:00N 46°48' W 071°12'0 0.0 120 / 31028.7 17.7-8.1
2018-May-18 21:00N 46°48' W 071°12'0 0.0 080 / 31028.8 16.7-6.3
2018-May-18 20:00N 46°48' W 071°12'0 0.0 070 / 31029.8 16.1-6.9
2018-May-18 19:00N 46°48' W 071°12'0 0.0 100 / 41030.4 15.8-8.1
2018-May-18 18:00N 46°48' W 071°12'0 0.0 080 / 41031.0 14.5-8.1
2018-May-18 17:00N 46°48' W 071°12'0 0.0 080 / 41031.1 13.2-7.8
2018-May-18 16:00N 46°48' W 071°12'0 0.0 080 / 41031.5 12.2-7.7
2018-May-18 15:00N 46°48' W 071°12'0 0.0 050 / 31031.3 10.1-6.7
2018-May-18 14:00N 46°48' W 071°12'0 0.0 360 / 41031.3 8.6-7.3
2018-May-18 13:00N 46°48' W 071°12'0 0.0 290 / 11030.8 8.6-7.8
2018-May-18 12:00N 46°48' W 071°12'0 0.0 200 / 51030.5 6.7-7.2
2018-May-18 11:00N 46°48' W 071°12'0 0.0 170 / 41030.3 5.2-5.4
2018-May-18 10:00N 46°48' W 071°12'0 0.0 190 / 51029.4 3.7-5.1
2018-May-18 09:00N 46°48' W 071°12'0 0.0 210 / 31028.9 3.9-4.8
2018-May-18 08:00N 46°48' W 071°12'0 0.0 250 / 11028.3 4.8-4.4
2018-May-18 07:00N 46°48' W 071°12'0 0.0 250 / 41027.9 5.4-6.0
2018-May-18 06:00N 46°48' W 071°12'0 0.0 290 / 21027.4 7.1-5.6
2018-May-18 05:00N 46°48' W 071°12'0 0.0 270 / 21026.8 6.9-2.1
2018-May-18 04:00N 46°48' W 071°12'0 0.0 270 / 21026.0 7.0-3.7
2018-May-18 03:00N 46°48' W 071°12'0 0.0 330 / 21024.7 8.5 0.2
2018-May-18 02:00N 46°48' W 071°12'0 0.0 320 / 41024.0 8.9-0.0
2018-May-18 01:00N 46°48' W 071°12'0 0.0 330 / 51022.8 9.2-0.1
2018-May-18 00:00N 46°48' W 071°12'0 0.0 320 / 71021.6 10.0-0.1
2018-May-17 23:00N 46°48' W 071°12'0 0.0 350 / 81020.8 10.8-0.9
2018-May-17 22:00N 46°48' W 071°12'0 0.0 360 / 91020.4 11.1-0.7
2018-May-17 21:00N 46°48' W 071°12'0 0.0 360 / 71020.6 11.6-0.2
2018-May-17 20:00N 46°48' W 071°12'0 0.0 350 / 61020.1 11.4-0.2
2018-May-17 19:00N 46°48' W 071°12'0 0.0 350 / 81019.8 10.9 0.3
2018-May-17 18:00N 46°48' W 071°12'0 0.0 360 / 91019.9 10.5-0.5
2018-May-17 17:00N 46°48' W 071°12'0 0.0 360 / 91019.8 9.7-0.6
2018-May-17 16:00N 46°48' W 071°12'0 0.0 340 / 101019.6 8.9-0.1
2018-May-17 15:00N 46°48' W 071°12'0 0.0 350 / 141018.8 8.7 0.9
2018-May-17 14:00N 46°48' W 071°12'0 0.0 010 / 111017.9 9.3 1.4
2018-May-17 13:00N 46°48' W 071°12'0 0.0 320 / 51017.6 9.3-1.2
2018-May-17 12:00N 46°48' W 071°12'0 0.0 280 / 21016.8 8.8-0.7
2018-May-17 11:00N 46°48' W 071°12'0 0.0 210 / 81015.5 9.4 2.1
2018-May-17 10:00N 46°48' W 071°12'0 0.0 330 / 51013.6 9.1 6.4
2018-May-17 09:00N 46°48' W 071°12'0 0.0 320 / 61012.4 9.7 6.5
2018-May-17 08:00N 46°48' W 071°12'0 0.0 070 / 11012.1 13.4 4.5
2018-May-17 07:00N 46°48' W 071°12'0 0.0 110 / 11010.7 12.6 3.2
2018-May-17 06:00N 46°48' W 071°12'0 0.0 190 / 41010.3 10.0 1.7
2018-May-17 05:00N 46°48' W 071°12'0 0.0 300 / 11009.7 9.6 3.5
2018-May-17 04:00N 46°48' W 071°12'0 0.0 1010.2 9.2 2.4
2018-May-17 03:00N 46°48' W 071°12'0 0.0 330 / 21011.0 9.2 1.7
2018-May-17 02:00N 46°48' W 071°12'0 0.0 340 / 51012.1 8.9 3.0
2018-May-17 01:00N 46°48' W 071°12'0 0.0 320 / 61012.7 8.9 2.6
2018-May-17 00:00N 46°48' W 071°12'0 0.0 360 / 81013.1 8.9 3.4
2018-May-16 23:00N 46°48' W 071°12'0 0.0 360 / 71013.8 9.8 2.5
2018-May-16 22:00N 46°48' W 071°12'0 0.0 340 / 41014.3 11.9 1.2
2018-May-16 21:00N 46°48' W 071°12'0 0.0 320 / 61014.6 13.2 1.9
2018-May-16 20:00N 46°48' W 071°12'0 0.0 350 / 21016.1 13.4-1.7
2018-May-16 19:00N 46°48' W 071°12'0 0.0 360 / 51017.8 13.1-2.4
2018-May-16 18:00N 46°48' W 071°12'0 0.0 350 / 51019.2 11.3-2.3
2018-May-16 17:00N 46°48' W 071°12'0 0.0 360 / 51020.4 9.7-4.7
2018-May-16 16:00N 46°48' W 071°12'0 0.0 330 / 51021.6 7.8-5.6
2018-May-16 15:00N 46°48' W 071°12'0 0.0 310 / 51022.2 6.5-5.9
2018-May-16 14:00N 46°48' W 071°12'0 0.0 330 / 51022.9 5.7-7.1
2018-May-16 13:00N 46°48' W 071°12'0 0.0 330 / 91023.0 4.7-6.5
2018-May-16 12:00N 46°48' W 071°12'0 0.0 350 / 91023.6 4.5-6.5
2018-May-16 11:00N 46°48' W 071°12'0 0.0 360 / 91022.9 3.9-7.7
2018-May-16 10:00N 46°48' W 071°12'0 0.0 020 / 71022.3 3.2-7.8
2018-May-16 09:00N 46°48' W 071°12'0 0.0 020 / 61021.7 3.2-6.8
2018-May-16 08:00N 46°48' W 071°12'0 0.0 010 / 51021.3 4.2-6.2
2018-May-16 07:00N 46°48' W 071°12'0 0.0 330 / 21020.7 4.7-5.8
2018-May-16 06:00N 46°48' W 071°12'0 0.0 260 / 31020.2 5.0-7.9
2018-May-16 05:00N 46°48' W 071°12'0 0.0 170 / 21019.6 5.8-7.8
2018-May-16 04:00N 46°48' W 071°12'0 0.0 310 / 11018.7 6.8-6.4
2018-May-16 03:00N 46°48' W 071°12'0 0.0 310 / 41017.6 7.8-6.3
2018-May-16 02:00N 46°48' W 071°12'0 0.0 320 / 71016.4 8.9-5.0
2018-May-16 01:00N 46°48' W 071°12'0 0.0 270 / 11014.9 11.2-5.0
2018-May-16 00:00N 46°48' W 071°12'0 0.0 290 / 11012.4 12.8-4.2
2018-May-15 23:00N 46°48' W 071°12'0 0.0 230 / 31010.1 15.7-1.7
2018-May-15 22:00N 46°48' W 071°12'0 0.0 220 / 121008.7 17.2-0.1
2018-May-15 21:00N 46°48' W 071°12'0 0.0 240 / 91007.5 18.8-0.5
2018-May-15 20:00N 46°48' W 071°12'0 0.0 220 / 91007.2 18.7-1.0
2018-May-15 19:00N 46°48' W 071°12'0 0.0 230 / 141006.0 19.1-1.2
2018-May-15 18:00N 46°48' W 071°12'0 0.0 170 / 51005.6 19.5 9.6
2018-May-15 17:00N 46°48' W 071°12'0 0.0 160 / 61005.4 18.8 9.8
2018-May-15 16:00N 46°48' W 071°12'0 0.0 180 / 101005.3 18.3 9.5
2018-May-15 15:00N 46°48' W 071°12'0 0.0 160 / 71005.0 17.7 9.6
2018-May-15 14:00N 46°48' W 071°12'0 0.0 180 / 81004.8 17.0 9.1
2018-May-15 13:00N 46°48' W 071°12'0 0.0 180 / 81005.0 16.8 8.4
2018-May-15 12:00N 46°48' W 071°12'0 0.0 200 / 41005.0 15.6 6.2
2018-May-15 11:00N 46°48' W 071°12'0 0.0 1005.2 13.8 6.5
2018-May-15 10:00N 46°48' W 071°12'0 0.0 250 / 11005.4 12.2 8.0
2018-May-15 09:00N 46°48' W 071°12'0 0.0 100 / 11005.3 12.6 7.5
2018-May-15 08:00N 46°48' W 071°12'0 0.0 1006.1 12.9 5.7
2018-May-15 07:00N 46°48' W 071°12'0 0.0 020 / 11006.6 13.5 6.6
2018-May-15 06:00N 46°48' W 071°12'   330 / 21007.3 15.1 4.8

Dump ship's entire track history